createdAt,value
2022-08-11T00:02:34.919Z,61.90
2022-08-11T00:05:08.083Z,63.50
2022-08-11T00:07:44.557Z,62.30
2022-08-11T00:10:17.329Z,62.10
2022-08-11T00:12:52.290Z,62.80
2022-08-11T00:15:21.110Z,62.90
2022-08-11T00:17:57.620Z,63.10
2022-08-11T00:20:32.437Z,62.40
2022-08-11T00:23:07.518Z,62.40
2022-08-11T00:25:40.854Z,63.30
2022-08-11T00:28:25.221Z,63.40
2022-08-11T00:30:57.376Z,63.30
2022-08-11T00:33:41.313Z,63.90
2022-08-11T00:36:25.344Z,64.60
2022-08-11T00:38:56.702Z,65.30
2022-08-11T00:41:34.717Z,66.00
2022-08-11T00:44:29.838Z,65.60
2022-08-11T00:47:12.990Z,66.60
2022-08-11T00:49:56.362Z,66.50
2022-08-11T00:52:40.817Z,66.40
2022-08-11T00:55:55.864Z,67.20
2022-08-11T00:59:01.746Z,66.80
2022-08-11T01:01:54.544Z,66.80
2022-08-11T01:05:06.643Z,69.10
2022-08-11T01:08:12.041Z,68.30
2022-08-11T01:11:18.040Z,68.40
2022-08-11T01:14:40.151Z,69.50
2022-08-11T01:17:50.670Z,68.70
2022-08-11T01:20:52.967Z,68.50
2022-08-11T01:24:00.936Z,68.70
2022-08-11T01:27:20.172Z,67.90
2022-08-11T01:30:16.946Z,68.60
2022-08-11T01:33:14.659Z,69.10
2022-08-11T01:36:34.345Z,68.80
2022-08-11T01:39:31.625Z,67.40
2022-08-11T01:42:42.662Z,67.20
2022-08-11T01:45:28.065Z,70.20
2022-08-11T01:48:03.715Z,69.60
2022-08-11T01:50:47.586Z,69.90
2022-08-11T01:53:29.453Z,69.80
2022-08-11T01:56:09.616Z,71.70
2022-08-11T01:58:46.672Z,70.50
2022-08-11T02:01:33.513Z,69.50
2022-08-11T04:07:28.932Z,70.50
2022-08-11T04:10:34.929Z,70.40
2022-08-11T04:13:30.393Z,70.30
2022-08-11T04:16:24.299Z,69.90
2022-08-11T04:19:31.412Z,68.30
2022-08-11T04:22:24.266Z,69.20
2022-08-11T04:25:07.114Z,70.50
2022-08-11T04:28:28.395Z,69.90
2022-08-11T04:31:50.470Z,69.60
2022-08-11T04:34:29.352Z,69.40
2022-08-11T04:37:35.297Z,72.70
2022-08-11T04:40:30.072Z,69.70
2022-08-11T04:43:31.288Z,70.00
2022-08-11T04:46:27.538Z,69.30
2022-08-11T04:50:00.660Z,70.70
2022-08-11T04:53:37.645Z,72.80
2022-08-11T04:56:30.897Z,72.00
2022-08-11T04:59:40.296Z,71.60
2022-08-11T05:02:44.608Z,72.90
2022-08-11T05:05:33.330Z,74.20
2022-08-11T05:08:42.525Z,74.80
2022-08-11T05:11:50.421Z,74.70
2022-08-11T05:14:49.757Z,75.60
2022-08-11T05:17:43.508Z,74.00
2022-08-11T05:20:31.376Z,73.70
2022-08-11T05:23:24.080Z,75.20
2022-08-11T05:26:47.685Z,76.80
2022-08-11T05:29:24.469Z,76.20
2022-08-11T05:32:17.858Z,76.10
2022-08-11T05:34:53.823Z,77.90
2022-08-11T05:37:27.876Z,77.00
2022-08-11T05:40:18.762Z,76.60
2022-08-11T05:43:13.707Z,76.30
2022-08-11T05:46:02.885Z,77.10
2022-08-11T05:48:52.375Z,76.90
2022-08-11T05:51:39.276Z,76.80
2022-08-11T05:54:40.089Z,76.80
2022-08-11T05:57:09.778Z,76.70
2022-08-11T05:59:40.585Z,76.90
2022-08-11T06:02:10.208Z,77.90
2022-08-11T06:04:39.622Z,77.20
2022-08-11T06:07:09.966Z,78.00
2022-08-11T06:09:41.524Z,77.60
2022-08-11T06:12:17.525Z,77.00
2022-08-11T06:14:48.245Z,76.40
2022-08-11T06:17:24.200Z,76.90
2022-08-11T06:19:57.426Z,76.90
2022-08-11T06:22:36.503Z,77.60
2022-08-11T06:25:07.974Z,77.30
2022-08-11T06:27:38.723Z,77.10
2022-08-11T06:30:14.406Z,76.60
2022-08-11T06:32:45.123Z,75.90
2022-08-11T06:35:23.035Z,76.50
2022-08-11T06:38:07.356Z,74.70
2022-08-11T06:40:42.999Z,74.80
2022-08-11T06:43:19.958Z,73.60
2022-08-11T06:45:56.806Z,75.00
2022-08-11T06:48:26.213Z,73.60
2022-08-11T06:51:12.148Z,73.50
2022-08-11T06:54:03.039Z,72.70
2022-08-11T06:57:12.500Z,74.60
2022-08-11T07:00:03.721Z,72.90
2022-08-11T07:02:39.021Z,72.90
2022-08-11T07:05:13.543Z,73.40
2022-08-11T07:08:44.040Z,72.80
2022-08-11T07:12:05.230Z,72.50
2022-08-11T07:14:51.888Z,74.10
2022-08-11T07:17:27.838Z,73.10
2022-08-11T07:20:19.516Z,72.90
2022-08-11T07:23:10.989Z,72.30
2022-08-11T07:26:00.027Z,72.10
2022-08-11T07:28:48.962Z,73.80
2022-08-11T07:31:25.526Z,73.30
2022-08-11T07:34:07.713Z,70.30
2022-08-11T07:36:43.413Z,73.40
2022-08-11T07:39:26.081Z,73.40
2022-08-11T07:41:58.089Z,70.90
2022-08-11T07:44:34.728Z,73.30
2022-08-11T07:47:22.436Z,70.50
2022-08-11T07:50:12.415Z,67.80
2022-08-11T07:52:42.512Z,69.40
2022-08-11T07:55:17.113Z,67.40
2022-08-11T07:58:19.156Z,68.10
2022-08-11T08:01:21.476Z,69.00
2022-08-11T08:04:10.274Z,66.40
2022-08-11T08:06:57.602Z,66.90
2022-08-11T08:09:47.765Z,67.00
2022-08-11T08:12:34.933Z,66.80
2022-08-11T08:15:25.822Z,67.00
2022-08-11T08:18:20.670Z,66.30
2022-08-11T08:20:49.979Z,66.50
2022-08-11T08:23:33.226Z,65.90
2022-08-11T08:26:26.773Z,65.10
2022-08-11T08:29:18.514Z,65.50
2022-08-11T08:31:46.960Z,65.90
2022-08-11T08:34:16.815Z,65.90
2022-08-11T08:36:48.112Z,65.00
2022-08-11T08:39:20.833Z,64.60
2022-08-11T08:41:55.514Z,65.20
2022-08-11T08:44:46.144Z,64.20
2022-08-11T08:47:42.106Z,64.30
2022-08-11T08:52:20.243Z,63.90
2022-08-11T08:53:05.740Z,62.80
2022-08-11T08:55:35.361Z,61.80
2022-08-11T08:58:05.165Z,61.90
2022-08-11T09:00:41.932Z,63.60
2022-08-11T09:03:38.971Z,61.50
2022-08-11T09:06:00.901Z,60.90
2022-08-11T09:08:32.672Z,60.50
2022-08-11T09:11:20.163Z,60.30
2022-08-11T09:14:05.086Z,60.60
2022-08-11T09:16:37.153Z,60.60
2022-08-11T09:19:06.560Z,60.00
2022-08-11T09:21:44.495Z,60.10
2022-08-11T09:24:36.915Z,60.00
2022-08-11T09:27:07.832Z,59.70
2022-08-11T09:29:39.777Z,58.70
2022-08-11T09:32:08.948Z,58.30
2022-08-11T09:34:39.853Z,58.90
2022-08-11T09:37:55.178Z,58.80
2022-08-11T09:40:30.274Z,59.10
2022-08-11T09:43:17.546Z,58.70
2022-08-11T09:45:51.843Z,58.30
2022-08-11T09:48:21.933Z,57.30
2022-08-11T09:50:52.738Z,58.10
2022-08-11T09:53:36.475Z,59.00
2022-08-11T09:56:32.365Z,57.50
2022-08-11T09:59:02.371Z,56.70
2022-08-11T10:01:41.697Z,56.90
2022-08-11T10:04:16.478Z,56.10
2022-08-11T10:07:04.231Z,55.30
2022-08-11T10:09:49.096Z,55.40
2022-08-11T10:12:25.933Z,54.60
2022-08-11T10:15:14.746Z,55.40
2022-08-11T10:18:02.300Z,53.80
2022-08-11T10:20:33.490Z,53.70
2022-08-11T10:23:20.675Z,56.90
2022-08-11T10:26:19.201Z,53.80
2022-08-11T10:29:11.687Z,53.00
2022-08-11T10:31:57.730Z,53.20
2022-08-11T10:34:29.875Z,53.20
2022-08-11T10:37:03.008Z,52.50
2022-08-11T10:39:31.728Z,51.50
2022-08-11T10:42:34.981Z,52.80
2022-08-11T10:45:30.075Z,51.40
2022-08-11T10:47:58.769Z,52.30
2022-08-11T10:50:46.485Z,52.60
2022-08-11T10:53:33.523Z,51.70
2022-08-11T10:56:22.101Z,52.50
2022-08-11T10:58:51.168Z,53.10
2022-08-11T11:01:24.706Z,51.00
2022-08-11T11:03:57.937Z,50.70
2022-08-11T11:06:34.448Z,51.10
2022-08-11T11:09:09.172Z,50.80
2022-08-11T11:11:58.237Z,51.00
2022-08-11T11:14:50.673Z,51.60
2022-08-11T11:17:45.965Z,52.50
2022-08-11T11:20:37.691Z,50.40
2022-08-11T11:23:17.892Z,49.60
2022-08-11T11:26:10.270Z,50.50
2022-08-11T11:29:02.517Z,50.80
2022-08-11T11:31:42.403Z,50.20
2022-08-11T11:34:22.910Z,50.00
2022-08-11T11:36:53.779Z,51.30
2022-08-11T11:39:25.433Z,49.60
2022-08-11T11:41:56.288Z,50.30
2022-08-11T11:44:26.697Z,49.10
2022-08-11T11:46:56.717Z,48.40
2022-08-11T11:49:28.234Z,48.80
2022-08-11T11:51:58.577Z,48.80
2022-08-11T11:54:29.561Z,49.20
2022-08-11T11:57:20.002Z,49.60
2022-08-11T12:00:08.466Z,49.00
2022-08-11T12:02:41.220Z,49.20
2022-08-11T12:05:11.323Z,48.70
2022-08-11T12:08:10.441Z,49.40
2022-08-11T12:10:47.301Z,49.50
2022-08-11T12:13:43.370Z,48.30
2022-08-11T12:16:33.061Z,48.00
2022-08-11T12:19:05.347Z,47.90
2022-08-11T12:21:35.945Z,47.80
2022-08-11T12:24:23.105Z,47.50
2022-08-11T12:27:18.263Z,50.70
2022-08-11T12:29:54.402Z,47.70
2022-08-11T12:32:26.797Z,48.80
2022-08-11T12:34:57.826Z,47.50
2022-08-11T12:37:32.194Z,47.50
2022-08-11T12:40:49.706Z,50.70
2022-08-11T12:43:38.913Z,47.70
2022-08-11T12:46:11.435Z,47.80
2022-08-11T12:49:03.692Z,47.20
2022-08-11T12:52:03.040Z,46.60
2022-08-11T12:54:59.998Z,46.30
2022-08-11T12:57:51.278Z,47.20
2022-08-11T13:00:39.835Z,46.60
2022-08-11T13:03:27.848Z,46.90
2022-08-11T13:05:59.447Z,47.20
2022-08-11T13:08:29.690Z,47.10
2022-08-11T13:11:16.854Z,46.50
2022-08-11T13:13:52.626Z,46.40
2022-08-11T13:16:30.294Z,45.80
2022-08-11T13:19:01.757Z,46.20
2022-08-11T13:21:31.861Z,45.80
2022-08-11T13:24:03.542Z,45.70
2022-08-11T13:26:46.713Z,45.20
2022-08-11T13:29:24.135Z,46.50
2022-08-11T13:31:57.100Z,46.70
2022-08-11T13:34:27.906Z,45.60
2022-08-11T13:36:59.499Z,45.00
2022-08-11T13:39:30.817Z,45.70
2022-08-11T13:42:01.361Z,45.80
2022-08-11T13:44:32.024Z,45.40
2022-08-11T13:47:04.937Z,44.10
2022-08-11T13:49:37.026Z,44.60
2022-08-11T13:52:14.098Z,44.20
2022-08-11T13:54:44.041Z,44.10
2022-08-11T13:58:18.181Z,45.30
2022-08-11T14:00:24.907Z,44.00
2022-08-11T14:03:00.570Z,43.50
2022-08-11T14:05:34.549Z,43.70
2022-08-11T14:08:06.264Z,46.00
2022-08-11T14:10:36.197Z,44.20
2022-08-11T14:13:27.378Z,43.60
2022-08-11T14:16:02.913Z,42.80
2022-08-11T14:18:34.681Z,43.20
2022-08-11T14:21:24.357Z,43.00
2022-08-11T14:23:55.549Z,43.40
2022-08-11T14:26:26.848Z,42.90
2022-08-11T14:28:59.130Z,44.20
2022-08-11T14:31:30.048Z,43.50
2022-08-11T14:34:04.059Z,43.10
2022-08-11T14:36:35.094Z,43.10
2022-08-11T14:39:08.332Z,42.10
2022-08-11T14:42:11.563Z,43.20
2022-08-11T14:45:16.928Z,43.50
2022-08-11T14:47:49.727Z,42.80
2022-08-11T14:50:24.636Z,42.70
2022-08-11T14:52:56.564Z,43.60
2022-08-11T14:55:44.587Z,43.30
2022-08-11T14:58:16.225Z,43.50
2022-08-11T15:00:45.694Z,44.00
2022-08-11T15:03:15.358Z,42.80
2022-08-11T15:08:20.192Z,42.20
2022-08-11T15:10:50.789Z,42.50
2022-08-11T15:13:21.629Z,42.60
2022-08-11T15:16:16.239Z,47.00
2022-08-11T15:18:44.933Z,44.10
2022-08-11T15:21:32.553Z,44.20
2022-08-11T15:24:18.485Z,49.50
2022-08-11T15:27:04.533Z,47.20
2022-08-11T15:29:58.825Z,45.60
2022-08-11T15:32:46.854Z,46.00
2022-08-11T15:35:39.635Z,42.80
2022-08-11T15:38:14.592Z,43.00
2022-08-11T15:41:02.323Z,41.70
2022-08-11T15:43:53.225Z,41.60
2022-08-11T15:46:32.708Z,42.40
2022-08-11T15:49:04.841Z,42.20
2022-08-11T15:51:38.368Z,42.50
2022-08-11T15:54:11.812Z,41.60
2022-08-11T15:56:44.709Z,41.00
2022-08-11T15:59:42.222Z,42.90
2022-08-11T16:02:33.114Z,41.80
2022-08-11T16:05:04.169Z,41.40
2022-08-11T16:07:38.429Z,41.10
2022-08-11T16:10:19.436Z,42.20
2022-08-11T16:13:10.127Z,42.00
2022-08-11T16:15:59.419Z,43.30
2022-08-11T16:18:40.707Z,41.40
2022-08-11T16:21:11.892Z,44.40
2022-08-11T16:24:02.275Z,42.40
2022-08-11T16:27:11.733Z,42.50
2022-08-11T16:29:26.009Z,43.20
2022-08-11T16:32:14.420Z,43.40
2022-08-11T16:35:02.409Z,44.10
2022-08-11T16:37:52.155Z,43.50
2022-08-11T16:40:22.691Z,44.00
2022-08-11T16:43:12.010Z,44.50
2022-08-11T16:46:00.893Z,44.40
2022-08-11T16:48:37.101Z,44.60
2022-08-11T16:51:07.733Z,45.00
2022-08-11T16:53:59.543Z,45.30
2022-08-11T16:56:33.390Z,45.30
2022-08-11T16:59:16.560Z,45.30
2022-08-11T17:01:53.585Z,45.20
2022-08-11T17:04:47.626Z,46.70
2022-08-11T17:07:41.657Z,46.70
2022-08-11T17:10:50.552Z,46.80
2022-08-11T17:13:27.087Z,46.10
2022-08-11T17:16:12.395Z,45.80
2022-08-11T17:18:51.162Z,45.90
2022-08-11T17:21:23.480Z,46.80
2022-08-11T17:23:55.066Z,48.10
2022-08-11T17:26:52.809Z,46.20
2022-08-11T17:29:25.529Z,45.30
2022-08-11T17:32:14.299Z,45.10
2022-08-11T17:35:03.362Z,44.30
2022-08-11T17:37:35.722Z,43.90
2022-08-11T17:40:08.046Z,46.10
2022-08-11T17:42:56.661Z,43.90
2022-08-11T17:45:43.683Z,43.80
2022-08-11T17:48:27.121Z,44.30
2022-08-11T17:50:59.103Z,46.20
2022-08-11T17:54:02.196Z,45.10
2022-08-11T17:56:56.706Z,44.90
2022-08-11T17:59:48.890Z,45.20
2022-08-11T18:02:40.534Z,44.50
2022-08-11T18:05:13.391Z,45.20
2022-08-11T18:08:01.896Z,44.70
2022-08-11T18:10:49.956Z,45.20
2022-08-11T18:13:38.795Z,45.50
2022-08-11T18:16:25.672Z,45.80
2022-08-11T18:19:12.022Z,45.80
2022-08-11T18:22:14.709Z,46.50
2022-08-11T18:25:07.050Z,47.30
2022-08-11T18:27:57.002Z,46.20
2022-08-11T18:30:45.021Z,46.30
2022-08-11T18:33:56.649Z,47.00
2022-08-11T18:36:42.703Z,45.90
2022-08-11T18:39:33.659Z,46.50
2022-08-11T18:42:29.757Z,46.80
2022-08-11T18:45:20.194Z,46.20
2022-08-11T18:48:11.530Z,46.40
2022-08-11T18:51:29.622Z,46.70
2022-08-11T18:54:16.329Z,46.40
2022-08-11T18:57:05.505Z,47.30
2022-08-11T18:59:55.665Z,56.00
2022-08-11T19:02:48.471Z,57.20
2022-08-11T19:06:32.175Z,53.90
2022-08-11T19:08:48.672Z,56.10
2022-08-11T19:11:42.841Z,57.60
2022-08-11T19:14:32.202Z,53.40
2022-08-11T19:17:44.713Z,57.10
2022-08-11T19:20:29.908Z,54.70
2022-08-11T19:23:16.509Z,56.30
2022-08-11T19:26:03.811Z,56.10
2022-08-11T19:28:52.254Z,54.70
2022-08-11T19:31:44.647Z,55.40
2022-08-11T19:34:34.482Z,55.50
2022-08-11T19:37:24.743Z,58.50
2022-08-11T19:40:12.814Z,57.50
2022-08-11T19:43:01.584Z,56.70
2022-08-11T19:45:52.693Z,56.20
2022-08-11T19:48:41.624Z,56.40
2022-08-11T19:51:29.876Z,59.50
2022-08-11T19:54:17.895Z,57.40
2022-08-11T19:57:06.486Z,57.20
2022-08-11T19:59:53.599Z,57.30
2022-08-11T20:02:40.634Z,59.10
2022-08-11T20:05:28.389Z,58.40
2022-08-11T20:08:18.588Z,58.40
2022-08-11T20:11:06.905Z,56.50
2022-08-11T20:13:54.573Z,58.70
2022-08-11T20:16:43.063Z,57.10
2022-08-11T20:22:10.124Z,57.30
2022-08-11T20:24:57.246Z,59.20
2022-08-11T20:27:43.596Z,59.30
2022-08-11T20:30:31.321Z,60.60
2022-08-11T20:33:17.870Z,59.80
2022-08-11T20:36:08.917Z,60.60
2022-08-11T20:38:57.739Z,60.50
2022-08-11T20:41:58.139Z,60.00
2022-08-11T20:44:46.850Z,60.00
2022-08-11T20:47:58.985Z,61.10
2022-08-11T20:50:45.925Z,59.80
2022-08-11T20:53:35.942Z,60.80
2022-08-11T20:56:28.490Z,57.00
2022-08-11T20:59:18.299Z,54.00
2022-08-11T21:02:09.889Z,53.30
2022-08-11T21:05:00.420Z,54.20
2022-08-11T21:07:57.158Z,54.00
2022-08-11T21:10:51.228Z,54.20
2022-08-11T21:13:43.133Z,55.30
2022-08-11T21:16:36.233Z,55.80
2022-08-11T21:20:00.564Z,55.80
2022-08-11T21:22:37.914Z,57.20
2022-08-11T21:25:29.027Z,57.80
2022-08-11T21:28:19.509Z,57.20
2022-08-11T21:31:08.826Z,58.80
2022-08-11T21:33:57.491Z,59.60
2022-08-11T21:36:45.652Z,58.90
2022-08-11T21:39:38.100Z,59.30
2022-08-11T21:42:25.603Z,59.20
2022-08-11T21:45:13.054Z,59.40
2022-08-11T21:48:02.336Z,58.10
2022-08-11T21:50:48.440Z,58.40
2022-08-11T21:53:35.041Z,56.30
2022-08-11T21:56:25.585Z,56.90
2022-08-11T21:59:15.956Z,56.10
2022-08-11T22:02:03.025Z,57.10
2022-08-11T22:04:52.869Z,57.50
2022-08-11T22:07:41.110Z,58.30
2022-08-11T22:10:42.176Z,57.20
2022-08-11T22:13:30.360Z,57.30
2022-08-11T22:16:17.657Z,58.50
2022-08-11T22:19:04.559Z,58.80
2022-08-11T22:22:01.048Z,59.70
2022-08-11T22:24:52.938Z,59.20
2022-08-11T22:27:40.207Z,60.20
2022-08-11T22:30:28.748Z,59.00
2022-08-11T22:33:18.653Z,58.20
2022-08-11T22:36:12.988Z,59.90
2022-08-11T22:39:03.130Z,59.10
2022-08-11T22:41:50.117Z,59.10
2022-08-11T22:44:36.234Z,59.50
2022-08-11T22:47:23.241Z,60.00
2022-08-11T22:50:16.693Z,58.70
2022-08-11T22:53:05.280Z,64.60
2022-08-11T22:55:53.509Z,61.70
2022-08-11T22:58:40.911Z,59.80
2022-08-11T23:01:27.799Z,58.20
2022-08-11T23:04:15.120Z,59.50
2022-08-11T23:07:01.775Z,61.60
2022-08-11T23:09:48.268Z,60.90
2022-08-11T23:12:36.437Z,61.90
2022-08-11T23:15:23.176Z,61.00
2022-08-11T23:18:09.327Z,59.40
2022-08-11T23:20:56.875Z,60.90
2022-08-11T23:23:44.898Z,59.40
2022-08-11T23:26:31.873Z,59.60
2022-08-11T23:29:19.636Z,58.90
2022-08-11T23:32:08.149Z,58.90
2022-08-11T23:35:04.531Z,61.80
2022-08-11T23:38:04.336Z,60.30
2022-08-11T23:40:50.362Z,59.70
2022-08-11T23:43:41.376Z,59.20
2022-08-11T23:46:29.232Z,61.60
2022-08-11T23:49:18.606Z,62.30
2022-08-11T23:52:05.526Z,60.50
2022-08-11T23:54:52.709Z,60.70
2022-08-11T23:57:38.722Z,62.70
